Time;durP1;ratioP1;P1;durP2;ratioP2;P2;SDS_P1;SDS_P2;PMS_P1;PMS_P2;Temp;Humidity;BMP_temperature;BMP_pressure;BME280_temperature;BME280_humidity;BME280_pressure;Samples;Min_cycle;Max_cycle;Signal;HPM_P1;HPM_P2
2022/02/09 00:00:17;;;;;;;7.85;6.18;;;7.70;99.90;;;;;;2107822;28;20032;-71
2022/02/09 00:03:27;;;;;;;7.70;6.22;;;7.70;99.90;;;;;;2101178;28;20044;-68
2022/02/09 00:05:25;;;;;;;9.43;6.10;;;7.80;99.90;;;;;;2107664;28;20665;-68
2022/02/09 00:08:00;;;;;;;8.35;6.32;;;7.80;99.90;;;;;;2100431;28;20037;-68
2022/02/09 00:09:01;;;;;;;;;;;7.80;99.90;;;;;;2101191;28;20027;-68
2022/02/09 00:10:03;;;;;;;8.30;6.38;;;7.80;99.90;;;;;;2100092;28;19912;-68
2022/02/09 00:11:05;;;;;;;8.50;6.50;;;7.80;99.90;;;;;;2082804;28;20484;-68
2022/02/09 00:12:14;;;;;;;7.75;6.20;;;7.80;99.90;;;;;;2074545;28;20078;-69
2022/02/09 00:13:54;;;;;;;8.63;6.50;;;7.80;99.90;;;;;;2099508;28;20024;-68
2022/02/09 00:15:28;;;;;;;8.20;6.50;;;7.80;99.90;;;;;;2097751;28;20028;-68
2022/02/09 00:19:13;;;;;;;8.55;6.38;;;7.80;99.90;;;;;;2079199;28;20073;-71
2022/02/09 00:22:13;;;;;;;7.82;6.05;;;7.80;99.90;;;;;;2095067;28;20041;-71
2022/02/09 00:30:34;;;;;;;8.60;6.25;;;7.80;99.90;;;;;;2094528;28;20475;-71
2022/02/09 00:35:45;;;;;;;8.82;6.20;;;7.80;99.90;;;;;;2106976;28;20028;-71
2022/02/09 00:42:19;;;;;;;8.70;6.70;;;7.80;99.90;;;;;;2106639;28;20510;-71
2022/02/09 00:43:38;;;;;;;7.13;6.43;;;7.80;99.90;;;;;;2095442;28;20096;-71
2022/02/09 00:44:59;;;;;;;7.53;6.32;;;7.80;99.90;;;;;;2099187;28;20082;-70
2022/02/09 01:11:38;;;;;;;8.37;6.40;;;7.80;99.90;;;;;;2105455;28;20030;-70
2022/02/09 01:39:54;;;;;;;10.00;6.70;;;7.80;99.90;;;;;;2105759;28;20422;-69
2022/02/09 01:51:09;;;;;;;9.13;7.70;;;7.80;99.90;;;;;;2106661;28;20032;-69
2022/02/09 01:55:41;;;;;;;11.82;7.20;;;7.80;99.90;;;;;;2106169;28;20552;-71
2022/02/09 01:56:41;;;;;;;9.05;6.75;;;7.70;99.90;;;;;;2106292;28;20028;-70
2022/02/09 01:57:46;;;;;;;8.32;6.63;;;7.70;99.90;;;;;;2106377;28;20050;-71
2022/02/09 01:58:48;;;;;;;9.15;6.70;;;7.80;99.90;;;;;;2106002;28;20530;-69
2022/02/09 01:59:48;;;;;;;9.15;6.95;;;7.80;99.90;;;;;;2106186;28;20050;-70
2022/02/09 02:00:49;;;;;;;8.23;6.65;;;7.80;99.90;;;;;;2105797;28;20151;-69
2022/02/09 02:01:50;;;;;;;8.23;6.43;;;7.80;99.90;;;;;;2106074;28;20024;-69
2022/02/09 02:02:50;;;;;;;8.20;6.95;;;7.80;99.90;;;;;;2105252;28;20483;-69
2022/02/09 02:03:52;;;;;;;9.13;6.68;;;7.80;99.90;;;;;;2105451;28;20024;-70
2022/02/09 02:04:53;;;;;;;8.75;6.47;;;7.80;99.90;;;;;;2105788;28;20023;-70
2022/02/09 02:05:55;;;;;;;9.68;7.30;;;7.80;99.90;;;;;;2106100;28;20036;-70
2022/02/09 02:06:56;;;;;;;8.95;6.80;;;7.80;99.90;;;;;;2104892;28;20657;-70
2022/02/09 02:08:00;;;;;;;8.07;6.50;;;7.80;99.90;;;;;;2096951;28;20040;-69
2022/02/09 02:09:02;;;;;;;10.40;7.20;;;7.90;99.90;;;;;;2105756;28;20048;-69
2022/02/09 02:10:07;;;;;;;10.05;7.03;;;7.80;99.90;;;;;;2105366;28;20461;-69
2022/02/09 02:11:21;;;;;;;8.02;6.97;;;7.90;99.90;;;;;;2105470;28;20473;-70
2022/02/09 02:12:23;;;;;;;9.27;6.72;;;7.90;99.90;;;;;;2105357;28;20454;-69
2022/02/09 02:14:57;;;;;;;8.35;6.80;;;7.90;99.90;;;;;;2105115;28;20050;-70
2022/02/09 02:16:20;;;;;;;9.02;7.13;;;7.90;99.90;;;;;;2105125;28;20020;-69
2022/02/09 02:17:30;;;;;;;9.57;7.07;;;7.90;99.90;;;;;;2099023;28;20079;-69
2022/02/09 02:18:32;;;;;;;9.77;6.78;;;7.90;99.90;;;;;;2105416;28;20031;-69
2022/02/09 02:19:42;;;;;;;9.65;7.35;;;8.00;99.90;;;;;;2104877;28;20024;-69
2022/02/09 02:20:58;;;;;;;8.20;7.07;;;8.00;99.90;;;;;;2104999;28;20020;-70
2022/02/09 02:28:54;;;;;;;10.60;7.95;;;7.90;99.90;;;;;;2105603;28;20032;-71
2022/02/09 02:30:42;;;;;;;8.55;7.55;;;8.00;99.90;;;;;;2105342;28;20609;-69
2022/02/09 02:31:41;;;;;;;10.25;7.47;;;8.00;99.90;;;;;;2104976;28;20115;-70
2022/02/09 02:36:21;;;;;;;11.10;7.90;;;7.90;99.90;;;;;;2105617;28;20032;-70
2022/02/09 02:39:21;;;;;;;9.45;8.23;;;8.00;99.90;;;;;;2091823;28;20495;-71
2022/02/09 03:07:56;;;;;;;9.45;7.43;;;8.00;99.90;;;;;;2071442;28;20568;-71
2022/02/09 03:08:11;;;;;;;8.90;7.22;;;8.00;99.90;;;;;;2071431;28;20030;-71
2022/02/09 03:09:16;;;;;;;11.20;7.78;;;8.10;99.90;;;;;;2105031;28;20119;-71
2022/02/09 03:12:40;;;;;;;10.75;7.75;;;8.10;99.90;;;;;;2104543;28;20043;-71
2022/02/09 03:13:51;;;;;;;9.32;7.40;;;8.10;99.90;;;;;;2104918;28;20057;-70
2022/02/09 03:15:02;;;;;;;8.80;7.47;;;8.10;99.90;;;;;;2105604;28;20020;-71
2022/02/09 03:16:08;;;;;;;9.48;7.70;;;8.10;99.90;;;;;;2105173;28;20036;-71
2022/02/09 03:17:15;;;;;;;8.25;7.30;;;8.10;99.90;;;;;;2104793;28;20024;-71
2022/02/09 03:20:34;;;;;;;9.07;7.47;;;8.10;99.90;;;;;;2105454;28;20024;-71
2022/02/09 03:23:13;;;;;;;;;;;8.10;99.90;;;;;;2071699;28;20030;-71
2022/02/09 03:24:21;;;;;;;9.48;7.03;;;8.10;99.90;;;;;;2104678;28;19908;-71
2022/02/09 03:25:52;;;;;;;8.80;6.95;;;8.10;99.90;;;;;;2105297;28;20028;-71
2022/02/09 03:27:18;;;;;;;9.10;7.13;;;8.10;99.90;;;;;;2105439;28;20024;-70
2022/02/09 03:31:11;;;;;;;9.40;6.88;;;8.10;99.90;;;;;;2105580;28;20046;-70
2022/02/09 03:42:57;;;;;;;9.75;7.30;;;8.10;99.90;;;;;;2105029;28;20442;-71
2022/02/09 03:47:06;;;;;;;8.43;6.82;;;8.10;99.90;;;;;;2073304;28;20038;-70
2022/02/09 03:49:17;;;;;;;8.68;7.35;;;8.10;99.90;;;;;;2073512;28;20038;-71
2022/02/09 03:50:33;;;;;;;8.27;7.13;;;8.10;99.90;;;;;;2065979;28;20041;-70
2022/02/09 03:52:02;;;;;;;13.40;7.53;;;8.10;99.90;;;;;;2059179;28;20042;-71
2022/02/09 03:54:52;;;;;;;9.05;7.65;;;8.10;99.90;;;;;;2100709;28;20085;-70
2022/02/09 03:57:04;;;;;;;8.43;6.70;;;8.10;99.90;;;;;;2105837;28;19958;-71
2022/02/09 03:58:06;;;;;;;8.20;6.93;;;8.10;99.90;;;;;;2106849;28;20111;-69
2022/02/09 03:59:06;;;;;;;7.60;6.72;;;8.10;99.90;;;;;;2106815;28;20073;-70
2022/02/09 04:00:08;;;;;;;9.88;7.60;;;8.10;99.90;;;;;;2106293;28;20084;-70
2022/02/09 04:01:08;;;;;;;10.23;7.07;;;8.10;99.90;;;;;;2106129;28;20074;-70
2022/02/09 04:02:10;;;;;;;8.75;7.45;;;8.10;99.90;;;;;;2106089;28;20020;-70
2022/02/09 04:03:15;;;;;;;7.63;6.75;;;8.10;99.90;;;;;;2106398;28;20450;-70
2022/02/09 04:04:15;;;;;;;7.72;6.80;;;8.10;99.90;;;;;;2098339;28;20411;-70
2022/02/09 04:05:18;;;;;;;9.77;7.53;;;8.10;99.90;;;;;;2106718;28;20040;-70
2022/02/09 04:06:18;;;;;;;9.85;7.28;;;8.10;99.90;;;;;;2106929;28;20398;-68
2022/02/09 04:07:19;;;;;;;10.38;7.40;;;8.10;99.90;;;;;;2106688;28;20039;-70
2022/02/09 04:08:26;;;;;;;8.98;7.40;;;8.20;99.90;;;;;;2107480;28;20048;-70
2022/02/09 04:09:30;;;;;;;8.10;7.07;;;8.10;99.90;;;;;;2107142;28;20039;-70
2022/02/09 04:10:40;;;;;;;9.75;7.43;;;8.10;99.90;;;;;;2107554;28;20080;-70
2022/02/09 04:11:55;;;;;;;8.82;7.10;;;8.10;99.90;;;;;;2107919;28;20053;-70
2022/02/09 04:14:26;;;;;;;8.50;7.18;;;8.10;99.90;;;;;;2107172;28;20107;-70
2022/02/09 04:15:45;;;;;;;8.88;7.28;;;8.10;99.90;;;;;;2107707;28;20032;-70
2022/02/09 04:17:02;;;;;;;8.05;6.85;;;8.10;99.90;;;;;;2107278;28;20052;-72
2022/02/09 04:18:16;;;;;;;10.25;7.50;;;8.10;99.90;;;;;;2108220;28;20074;-71
2022/02/09 04:37:12;;;;;;;8.55;7.00;;;8.10;99.90;;;;;;2105813;28;20036;-70
2022/02/09 04:38:32;;;;;;;7.70;6.88;;;8.10;99.90;;;;;;2106652;28;20020;-70
2022/02/09 04:44:34;;;;;;;7.72;6.20;;;8.10;99.90;;;;;;2105877;28;20534;-70
2022/02/09 04:47:02;;;;;;;8.77;6.32;;;8.10;99.90;;;;;;2106016;28;20478;-71
2022/02/09 04:52:27;;;;;;;7.25;6.07;;;8.10;99.90;;;;;;2105242;28;20038;-70
2022/02/09 04:55:53;;;;;;;7.07;6.10;;;8.10;99.90;;;;;;2104759;28;20024;-70
2022/02/09 04:56:59;;;;;;;7.57;6.28;;;8.20;99.90;;;;;;2105324;28;20032;-70
2022/02/09 04:58:42;;;;;;;7.40;6.13;;;8.10;99.90;;;;;;2105841;28;20020;-71
2022/02/09 04:59:38;;;;;;;8.50;6.43;;;8.10;99.90;;;;;;2101843;28;20063;-70
2022/02/09 05:05:36;;;;;;;8.10;6.38;;;8.10;99.90;;;;;;2105993;28;20043;-70
2022/02/09 05:18:54;;;;;;;10.40;6.80;;;8.20;99.90;;;;;;2106046;28;20024;-70
2022/02/09 05:21:50;;;;;;;8.63;5.65;;;8.20;99.90;;;;;;2105993;28;20066;-69
2022/02/09 05:22:59;;;;;;;7.20;5.95;;;8.10;99.90;;;;;;2106033;28;20502;-71
2022/02/09 05:26:26;;;;;;;8.32;5.78;;;8.10;99.90;;;;;;2109658;28;20028;-70
2022/02/09 05:28:46;;;;;;;8.18;5.90;;;8.10;99.90;;;;;;2112157;28;20657;-70
2022/02/09 05:29:47;;;;;;;6.65;5.90;;;8.10;99.90;;;;;;2107175;28;20028;-70
2022/02/09 05:30:52;;;;;;;7.40;5.97;;;8.10;99.90;;;;;;2106596;28;20541;-72
2022/02/09 05:31:53;;;;;;;9.23;5.72;;;8.10;99.90;;;;;;2106281;28;20059;-70
2022/02/09 05:32:53;;;;;;;7.38;5.57;;;8.10;99.90;;;;;;2105602;28;20043;-70
2022/02/09 05:33:54;;;;;;;5.95;5.35;;;8.10;99.90;;;;;;2105547;28;20034;-70
2022/02/09 05:34:54;;;;;;;7.07;5.43;;;8.10;99.90;;;;;;2106673;28;20023;-70
2022/02/09 05:35:55;;;;;;;8.88;5.05;;;8.10;99.90;;;;;;2106524;28;20521;-70
2022/02/09 05:36:56;;;;;;;7.00;5.63;;;8.10;99.90;;;;;;2105816;28;20031;-70
2022/02/09 05:37:57;;;;;;;9.20;5.20;;;8.10;99.90;;;;;;2106317;28;20028;-70
2022/02/09 05:38:58;;;;;;;7.00;5.45;;;8.10;99.90;;;;;;2105876;28;20110;-70
2022/02/09 05:39:59;;;;;;;6.10;5.18;;;8.10;99.90;;;;;;2097213;28;20032;-71
2022/02/09 05:40:59;;;;;;;5.90;4.82;;;8.10;99.90;;;;;;2105737;28;20020;-70
2022/02/09 05:42:00;;;;;;;5.35;4.55;;;8.10;99.90;;;;;;2105489;28;20574;-72
2022/02/09 05:43:01;;;;;;;7.30;4.57;;;8.10;99.90;;;;;;2106290;28;20415;-70
2022/02/09 05:44:01;;;;;;;5.97;4.40;;;8.10;99.90;;;;;;2106681;28;20028;-70
2022/02/09 05:45:10;;;;;;;5.13;4.50;;;8.20;99.90;;;;;;2106267;28;20106;-71
2022/02/09 05:47:01;;;;;;;5.43;4.40;;;8.20;99.90;;;;;;2106437;28;20059;-70
2022/02/09 05:48:40;;;;;;;5.80;4.32;;;8.20;99.90;;;;;;2106191;28;20107;-70
2022/02/09 05:50:41;;;;;;;7.38;4.32;;;8.20;99.90;;;;;;2105729;28;20515;-72
2022/02/09 05:53:08;;;;;;;4.65;3.70;;;8.10;99.90;;;;;;2106530;28;20047;-70
2022/02/09 05:57:54;;;;;;;4.70;3.72;;;8.10;99.90;;;;;;2106320;28;20316;-71
2022/02/09 05:59:15;;;;;;;6.50;3.85;;;8.20;99.90;;;;;;2106030;28;20035;-72
2022/02/09 06:00:17;;;;;;;5.68;4.05;;;8.20;99.90;;;;;;2106325;28;20020;-71
2022/02/09 06:01:17;;;;;;;6.78;3.60;;;8.20;99.90;;;;;;2106414;28;20024;-72
2022/02/09 06:02:21;;;;;;;6.18;3.70;;;8.20;99.90;;;;;;2105795;28;20028;-72
2022/02/09 06:03:22;;;;;;;4.25;3.60;;;8.20;99.90;;;;;;2105457;28;20024;-70
2022/02/09 06:04:23;;;;;;;4.47;3.75;;;8.20;99.90;;;;;;2096931;28;20067;-70
2022/02/09 06:05:23;;;;;;;8.85;3.72;;;8.20;99.90;;;;;;2105272;28;20071;-70
2022/02/09 06:06:24;;;;;;;4.20;3.55;;;8.20;99.90;;;;;;2105570;28;20040;-70
2022/02/09 06:07:25;;;;;;;4.18;3.70;;;8.20;99.90;;;;;;2105070;28;20024;-70
2022/02/09 06:08:25;;;;;;;5.00;3.65;;;8.20;99.90;;;;;;2106207;28;20032;-70
2022/02/09 06:09:27;;;;;;;4.18;3.78;;;8.20;99.90;;;;;;2106040;28;20044;-70
2022/02/09 06:10:31;;;;;;;4.20;3.60;;;8.20;99.90;;;;;;2106275;28;20506;-71
2022/02/09 06:11:52;;;;;;;4.25;3.72;;;8.20;99.90;;;;;;2105170;28;20586;-70
2022/02/09 06:13:08;;;;;;;4.68;3.90;;;8.20;99.90;;;;;;2105166;28;20032;-71
2022/02/09 06:20:23;;;;;;;4.68;3.90;;;8.10;99.90;;;;;;2104850;28;20030;-70
2022/02/09 06:21:24;;;;;;;4.88;4.10;;;8.10;99.90;;;;;;2105050;28;20388;-69
2022/02/09 06:22:24;;;;;;;4.22;3.83;;;8.10;99.90;;;;;;2104610;28;20064;-69
2022/02/09 06:23:26;;;;;;;4.97;4.20;;;8.10;99.90;;;;;;2105077;28;20046;-72
2022/02/09 06:24:26;;;;;;;5.07;3.78;;;8.10;99.90;;;;;;2105599;28;20035;-73
2022/02/09 06:25:30;;;;;;;4.40;4.00;;;8.10;99.90;;;;;;2105362;28;20020;-72
2022/02/09 06:26:30;;;;;;;5.65;4.10;;;8.10;99.90;;;;;;2104884;28;20036;-71
2022/02/09 06:27:31;;;;;;;4.05;3.65;;;8.10;99.90;;;;;;2104934;28;20032;-71
2022/02/09 06:28:32;;;;;;;5.65;4.10;;;8.10;99.90;;;;;;2105889;28;20020;-71
2022/02/09 06:29:32;;;;;;;5.25;4.75;;;8.20;99.90;;;;;;2096888;28;20123;-74
2022/02/09 06:30:35;;;;;;;6.30;4.47;;;8.20;99.90;;;;;;2096734;28;20040;-73
2022/02/09 06:31:37;;;;;;;5.50;4.03;;;8.10;99.90;;;;;;2112812;28;20036;-70
2022/02/09 06:32:37;;;;;;;5.35;4.30;;;8.10;99.90;;;;;;2104793;28;20040;-71
2022/02/09 06:33:38;;;;;;;5.43;4.20;;;8.10;99.90;;;;;;2105133;28;20462;-73
2022/02/09 06:34:40;;;;;;;5.82;4.03;;;8.10;99.90;;;;;;2105492;28;20028;-72
2022/02/09 06:35:41;;;;;;;5.47;3.80;;;8.20;99.90;;;;;;2104827;28;20024;-72
2022/02/09 06:36:46;;;;;;;4.75;3.88;;;8.20;99.90;;;;;;2104761;28;20757;-72
2022/02/09 06:37:48;;;;;;;4.35;3.70;;;8.10;99.90;;;;;;2105006;28;20577;-72
2022/02/09 06:38:49;;;;;;;4.70;3.85;;;8.20;99.90;;;;;;2105461;28;20024;-69
2022/02/09 06:39:58;;;;;;;6.88;3.80;;;8.10;99.90;;;;;;2097126;28;20522;-73
2022/02/09 06:40:59;;;;;;;6.35;3.90;;;8.20;99.90;;;;;;2105493;28;20475;-70
2022/02/09 06:41:59;;;;;;;6.32;4.00;;;8.20;99.90;;;;;;2105748;28;20059;-69
2022/02/09 06:43:00;;;;;;;5.32;4.03;;;8.20;99.90;;;;;;2105931;28;20020;-70
2022/02/09 06:44:02;;;;;;;5.40;4.03;;;8.20;99.90;;;;;;2105328;28;20052;-70
2022/02/09 06:45:09;;;;;;;7.72;6.00;;;8.10;99.90;;;;;;2105629;28;20509;-69
2022/02/09 06:46:10;;;;;;;5.60;4.13;;;8.20;99.90;;;;;;2105355;28;20082;-69
2022/02/09 06:47:11;;;;;;;4.53;4.13;;;8.20;99.90;;;;;;2105353;28;20028;-70
2022/02/09 06:48:13;;;;;;;6.93;4.18;;;8.20;99.90;;;;;;2105554;28;20483;-72
2022/02/09 06:49:16;;;;;;;8.48;4.53;;;8.20;99.90;;;;;;2097930;28;20078;-71
2022/02/09 06:50:35;;;;;;;4.93;3.95;;;8.20;99.90;;;;;;2098274;28;20520;-71
2022/02/09 06:51:38;;;;;;;6.40;4.00;;;8.20;99.90;;;;;;2106440;28;20040;-72
2022/02/09 06:52:43;;;;;;;4.15;3.75;;;8.20;99.90;;;;;;2106221;28;20048;-71
2022/02/09 06:54:03;;;;;;;4.55;4.15;;;8.20;99.90;;;;;;2105822;28;20024;-68
2022/02/09 06:55:13;;;;;;;8.93;4.25;;;8.20;99.90;;;;;;2105707;28;20102;-68
2022/02/09 06:56:24;;;;;;;4.95;3.83;;;8.20;99.90;;;;;;2106044;28;20455;-70
2022/02/09 06:57:33;;;;;;;5.28;3.90;;;8.20;99.90;;;;;;2104328;28;20617;-69
2022/02/09 06:59:38;;;;;;;4.97;3.80;;;8.20;99.90;;;;;;2104444;28;20024;-69
2022/02/09 07:00:41;;;;;;;5.43;3.80;;;8.20;99.90;;;;;;2104892;28;20483;-69
2022/02/09 07:01:41;;;;;;;7.28;4.10;;;8.20;99.90;;;;;;2105303;28;20028;-69
2022/02/09 07:02:43;;;;;;;4.85;3.60;;;8.20;99.90;;;;;;2105048;28;20025;-68
2022/02/09 07:03:44;;;;;;;5.95;3.65;;;8.20;99.90;;;;;;2104863;28;20561;-68
2022/02/09 07:04:49;;;;;;;5.10;3.70;;;8.20;99.90;;;;;;2104962;28;20032;-69
2022/02/09 07:05:49;;;;;;;5.78;3.80;;;8.20;99.90;;;;;;2105505;28;20032;-69
2022/02/09 07:06:51;;;;;;;5.55;3.78;;;8.20;99.90;;;;;;2104462;28;20574;-68
2022/02/09 07:07:52;;;;;;;6.55;3.53;;;8.20;99.90;;;;;;2104901;28;20368;-68
2022/02/09 07:08:53;;;;;;;5.43;3.60;;;8.20;99.90;;;;;;2105097;28;20055;-68
2022/02/09 07:09:53;;;;;;;6.28;3.70;;;8.20;99.90;;;;;;2105159;28;20036;-69
2022/02/09 07:10:55;;;;;;;5.97;3.53;;;8.20;99.90;;;;;;2105157;28;20035;-68
2022/02/09 07:11:56;;;;;;;4.97;3.47;;;8.20;99.90;;;;;;2105339;28;20043;-68
2022/02/09 07:12:56;;;;;;;5.70;3.58;;;8.20;99.90;;;;;;2105603;28;20036;-69
2022/02/09 07:13:57;;;;;;;4.90;3.83;;;8.20;99.90;;;;;;2105478;28;20052;-68
2022/02/09 07:14:58;;;;;;;5.40;3.72;;;8.20;99.90;;;;;;2105018;28;20449;-68
2022/02/09 07:16:04;;;;;;;5.75;3.50;;;8.20;99.90;;;;;;2105201;28;20095;-69
2022/02/09 07:17:04;;;;;;;5.70;3.53;;;8.20;99.90;;;;;;2105276;28;20074;-69
2022/02/09 07:18:10;;;;;;;4.78;3.67;;;8.20;99.90;;;;;;2110531;28;20088;-69
2022/02/09 07:19:10;;;;;;;5.88;3.60;;;8.20;99.90;;;;;;2114734;28;20050;-70
2022/02/09 07:20:16;;;;;;;4.43;3.78;;;8.20;99.90;;;;;;2114920;28;20048;-69
2022/02/09 07:21:23;;;;;;;4.15;3.67;;;8.30;99.90;;;;;;2116940;28;20040;-69
2022/02/09 07:22:26;;;;;;;5.35;3.65;;;8.20;99.90;;;;;;2115420;28;20028;-69
2022/02/09 07:24:31;;;;;;;4.38;3.78;;;8.30;99.90;;;;;;2115763;28;20036;-67
2022/02/09 07:25:33;;;;;;;5.60;3.92;;;8.30;99.90;;;;;;2115162;28;20016;-71
2022/02/09 07:27:50;;;;;;;4.88;3.47;;;8.30;99.90;;;;;;2114952;28;20031;-71
2022/02/09 07:28:50;;;;;;;5.53;3.70;;;8.30;99.90;;;;;;2110638;28;20095;-72
2022/02/09 07:29:51;;;;;;;5.35;3.78;;;8.30;99.90;;;;;;2109470;28;20028;-71
2022/02/09 07:30:52;;;;;;;4.35;3.65;;;8.30;99.90;;;;;;2108608;28;20020;-71
2022/02/09 07:31:52;;;;;;;6.28;3.50;;;8.30;99.90;;;;;;2107625;28;20024;-71
2022/02/09 07:32:55;;;;;;;5.07;3.80;;;8.40;99.90;;;;;;2108179;28;20036;-72
2022/02/09 07:33:59;;;;;;;6.43;3.30;;;8.30;99.90;;;;;;2107827;28;20020;-71
2022/02/09 07:35:00;;;;;;;4.20;3.50;;;8.40;99.90;;;;;;2100227;28;20059;-71
2022/02/09 07:36:01;;;;;;;3.83;3.45;;;8.40;99.90;;;;;;2098928;28;20028;-72
2022/02/09 07:37:01;;;;;;;3.97;3.53;;;8.40;99.90;;;;;;2106854;28;20026;-72
2022/02/09 07:38:02;;;;;;;3.90;3.33;;;8.40;99.90;;;;;;2108196;28;20154;-72
2022/02/09 07:39:05;;;;;;;3.42;3.13;;;8.40;99.90;;;;;;2107799;28;20034;-72
2022/02/09 07:40:10;;;;;;;5.68;3.95;;;8.40;99.90;;;;;;2098804;28;20416;-71
2022/02/09 07:41:12;;;;;;;5.13;3.40;;;8.40;99.90;;;;;;2099758;28;20060;-68
2022/02/09 07:42:20;;;;;;;4.22;3.60;;;8.40;99.90;;;;;;2098439;28;20611;-70
2022/02/09 07:43:25;;;;;;;5.18;3.60;;;8.40;99.90;;;;;;2099123;28;20036;-70
2022/02/09 07:47:46;;;;;;;8.05;3.20;;;8.50;99.90;;;;;;2106500;28;20024;-67
2022/02/09 07:50:15;;;;;;;4.15;3.30;;;8.40;99.90;;;;;;2107545;28;19907;-68
2022/02/09 07:51:28;;;;;;;4.55;3.17;;;8.50;99.90;;;;;;2108609;28;20036;-68
2022/02/09 07:52:28;;;;;;;4.47;3.17;;;8.50;99.90;;;;;;2107960;28;20514;-67
2022/02/09 07:53:38;;;;;;;9.20;3.40;;;8.50;99.90;;;;;;2107646;28;20052;-67
2022/02/09 07:54:38;;;;;;;4.55;3.40;;;8.50;99.90;;;;;;2106690;28;20030;-67
2022/02/09 07:55:39;;;;;;;3.47;3.17;;;8.50;99.90;;;;;;2106371;28;20032;-67
2022/02/09 07:56:42;;;;;;;4.50;3.20;;;8.50;99.90;;;;;;2105777;28;20109;-67
2022/02/09 07:57:43;;;;;;;3.83;3.35;;;8.50;99.90;;;;;;2106212;28;20020;-67
2022/02/09 07:58:44;;;;;;;3.35;3.05;;;8.50;99.90;;;;;;2106118;28;20541;-68
2022/02/09 07:59:44;;;;;;;4.93;3.20;;;8.50;99.90;;;;;;2106285;28;20120;-67
2022/02/09 08:00:45;;;;;;;4.50;3.15;;;8.50;99.90;;;;;;2106879;28;20380;-68
2022/02/09 08:01:46;;;;;;;5.95;3.35;;;8.50;99.90;;;;;;2105829;28;20507;-67
2022/02/09 08:02:49;;;;;;;4.95;3.30;;;8.50;99.90;;;;;;2105984;28;20036;-67
2022/02/09 08:03:50;;;;;;;4.68;3.40;;;8.50;99.90;;;;;;2106418;28;20110;-68
2022/02/09 08:04:51;;;;;;;4.35;3.10;;;8.50;99.90;;;;;;2106131;28;20127;-68
2022/02/09 08:05:51;;;;;;;4.63;3.20;;;8.50;99.90;;;;;;2106003;28;20020;-68
2022/02/09 08:06:53;;;;;;;3.33;3.03;;;8.50;99.90;;;;;;2106238;28;20032;-68
2022/02/09 08:07:54;;;;;;;5.28;3.38;;;8.50;99.90;;;;;;2106887;28;20622;-69
2022/02/09 08:09:01;;;;;;;6.93;3.70;;;8.50;99.90;;;;;;2106899;28;20209;-68
2022/02/09 08:10:02;;;;;;;4.65;3.60;;;8.50;99.90;;;;;;2106244;28;20094;-68
2022/02/09 08:11:15;;;;;;;4.55;3.72;;;8.50;99.90;;;;;;2106345;28;20055;-68
2022/02/09 08:20:33;;;;;;;4.50;3.92;;;8.50;99.90;;;;;;2106720;28;20081;-68
2022/02/09 08:24:13;;;;;;;4.13;3.70;;;8.50;99.90;;;;;;2106553;28;20027;-70
2022/02/09 08:30:03;;;;;;;5.38;3.97;;;8.50;99.90;;;;;;2106220;28;20039;-70
2022/02/09 08:32:25;;;;;;;6.75;3.90;;;8.50;99.90;;;;;;2106160;28;20039;-69
2022/02/09 08:33:18;;;;;;;4.28;3.88;;;8.50;99.90;;;;;;2105509;28;20044;-68
2022/02/09 08:34:22;;;;;;;4.07;3.67;;;8.50;99.90;;;;;;2106337;28;20052;-70
2022/02/09 08:35:23;;;;;;;4.88;3.80;;;8.50;99.90;;;;;;2106196;28;20114;-69
2022/02/09 08:36:24;;;;;;;4.43;3.70;;;8.50;99.90;;;;;;2106304;28;20542;-71
2022/02/09 08:37:29;;;;;;;6.10;4.10;;;8.50;99.90;;;;;;2105775;28;20024;-70
2022/02/09 08:38:38;;;;;;;4.53;3.85;;;8.50;99.90;;;;;;2106452;28;20058;-70
2022/02/09 08:39:44;;;;;;;5.47;3.78;;;8.50;99.90;;;;;;2106392;28;20032;-71
2022/02/09 08:40:46;;;;;;;5.00;3.63;;;8.50;99.90;;;;;;2098394;28;20474;-70
2022/02/09 08:41:57;;;;;;;5.68;4.18;;;8.50;99.90;;;;;;2106020;28;20020;-70
2022/02/09 08:43:00;;;;;;;4.38;3.97;;;8.50;99.90;;;;;;2097777;28;20031;-70
2022/02/09 08:44:02;;;;;;;4.20;3.80;;;8.50;99.90;;;;;;2098301;28;20055;-70
2022/02/09 08:45:03;;;;;;;5.03;3.85;;;8.50;99.90;;;;;;2097798;28;20120;-70
2022/02/09 08:46:09;;;;;;;4.57;3.60;;;8.50;99.90;;;;;;2097941;28;20032;-69
2022/02/09 08:47:20;;;;;;;;;;;;;;;;;;;;;
2022/02/09 08:48:21;;;;;;;4.60;3.92;;;8.50;99.90;;;;;;2106183;28;20661;-68
2022/02/09 08:49:22;;;;;;;4.85;4.05;;;8.50;99.90;;;;;;2098329;28;20024;-69
2022/02/09 08:50:26;;;;;;;5.57;3.60;;;8.60;99.90;;;;;;2106759;28;20371;-69
2022/02/09 08:51:27;;;;;;;7.72;4.20;;;8.60;99.90;;;;;;2106501;28;20066;-71
2022/02/09 08:52:28;;;;;;;5.25;3.60;;;8.60;99.90;;;;;;2097417;28;20039;-68
2022/02/09 08:53:29;;;;;;;5.05;3.72;;;8.50;99.90;;;;;;2097931;28;20040;-70
2022/02/09 08:54:30;;;;;;;8.90;4.00;;;8.50;99.90;;;;;;2107031;28;20664;-73
2022/02/09 08:55:41;;;;;;;6.45;4.30;;;8.60;99.90;;;;;;2097868;28;20563;-69
2022/02/09 08:56:42;;;;;;;6.07;3.80;;;8.60;99.90;;;;;;2098925;28;20016;-69
2022/02/09 08:57:42;;;;;;;6.28;4.00;;;8.60;99.90;;;;;;2106542;28;20035;-69
2022/02/09 08:58:44;;;;;;;4.30;3.80;;;8.60;99.90;;;;;;2105775;28;20111;-69
2022/02/09 08:59:45;;;;;;;4.13;3.72;;;8.60;99.90;;;;;;2105711;28;20056;-69
2022/02/09 09:00:46;;;;;;;4.50;3.70;;;8.60;99.90;;;;;;2106418;28;20025;-72
2022/02/09 09:01:56;;;;;;;4.28;3.88;;;8.60;99.90;;;;;;2097184;28;20439;-70
2022/02/09 09:03:19;;;;;;;4.40;4.00;;;8.60;99.90;;;;;;2098696;28;20043;-72
2022/02/09 09:04:46;;;;;;;4.40;3.80;;;8.60;99.90;;;;;;2102330;28;20036;-71
2022/02/09 09:05:49;;;;;;;5.80;4.22;;;8.60;99.90;;;;;;2106198;28;20082;-68
2022/02/09 09:06:56;;;;;;;4.20;3.80;;;8.60;99.90;;;;;;2105119;28;20042;-67
2022/02/09 09:08:12;;;;;;;4.65;3.50;;;8.60;99.90;;;;;;2105475;28;20020;-68
2022/02/09 09:09:53;;;;;;;4.40;3.63;;;8.60;99.90;;;;;;2106518;28;20024;-68
2022/02/09 09:15:37;;;;;;;4.72;3.90;;;8.60;99.90;;;;;;2105873;28;20549;-67
2022/02/09 09:18:12;;;;;;;6.93;4.20;;;8.70;99.90;;;;;;2105754;28;20028;-67
2022/02/09 09:31:13;;;;;;;5.45;3.92;;;8.70;99.90;;;;;;2106067;28;20036;-73
2022/02/09 10:02:16;;;;;;;5.15;3.70;;;9.00;99.90;;;;;;2105823;28;20032;-71
2022/02/09 10:14:06;;;;;;;5.82;4.03;;;9.00;99.90;;;;;;2105561;28;20066;-71
2022/02/09 10:31:03;;;;;;;6.78;3.70;;;9.10;99.90;;;;;;2106219;28;20020;-70
2022/02/09 10:31:32;;;;;;;4.03;3.63;;;9.20;99.90;;;;;;2105593;28;20119;-71
2022/02/09 10:32:52;;;;;;;6.82;4.00;;;9.20;99.90;;;;;;2105958;28;20054;-72
2022/02/09 10:34:04;;;;;;;5.32;4.07;;;9.20;99.90;;;;;;2105024;28;20104;-70
2022/02/09 10:35:13;;;;;;;4.93;4.05;;;9.20;99.90;;;;;;2091084;28;20476;-70
2022/02/09 10:36:28;;;;;;;4.70;4.00;;;9.20;99.90;;;;;;2091162;28;20029;-71
2022/02/09 10:37:31;;;;;;;4.35;3.80;;;9.20;99.90;;;;;;2106063;28;20086;-73
2022/02/09 10:38:45;;;;;;;9.75;5.05;;;9.20;99.90;;;;;;2106543;28;20820;-69
2022/02/09 10:40:00;;;;;;;5.93;3.92;;;9.30;99.90;;;;;;2105967;28;20408;-69
2022/02/09 10:41:09;;;;;;;5.90;4.22;;;9.30;99.90;;;;;;2099173;28;20050;-70
2022/02/09 10:42:22;;;;;;;4.88;4.22;;;9.30;99.90;;;;;;2105634;28;20530;-69
2022/02/09 10:43:33;;;;;;;5.15;4.00;;;9.30;99.90;;;;;;2106470;28;20387;-68
2022/02/09 10:44:51;;;;;;;8.50;4.45;;;9.30;99.90;;;;;;2106042;28;20089;-69
2022/02/09 10:45:53;;;;;;;5.30;4.20;;;9.30;99.90;;;;;;2106284;28;20439;-68
2022/02/09 10:46:59;;;;;;;6.00;4.00;;;9.30;99.90;;;;;;2105593;28;20061;-69
2022/02/09 10:48:05;;;;;;;4.20;3.80;;;9.20;99.90;;;;;;2105721;28;20028;-68
2022/02/09 10:49:09;;;;;;;4.70;4.20;;;9.20;99.90;;;;;;2097555;28;20067;-69
2022/02/09 10:50:25;;;;;;;4.68;4.05;;;9.20;99.90;;;;;;2097420;28;20033;-68
2022/02/09 10:53:00;;;;;;;6.40;4.15;;;9.20;99.90;;;;;;2102996;28;20035;-69
2022/02/09 10:54:12;;;;;;;5.53;4.00;;;9.30;99.90;;;;;;2101483;28;20062;-69
2022/02/09 10:55:35;;;;;;;5.03;3.97;;;9.20;99.90;;;;;;2107509;28;20020;-68
2022/02/09 10:56:41;;;;;;;6.57;4.13;;;9.20;99.90;;;;;;2107130;28;20105;-69
2022/02/09 10:57:51;;;;;;;5.05;4.07;;;9.30;99.90;;;;;;2098523;28;20021;-69
2022/02/09 10:58:58;;;;;;;4.70;4.07;;;9.30;99.90;;;;;;2092673;28;20029;-70
2022/02/09 11:00:01;;;;;;;5.78;4.43;;;9.30;99.90;;;;;;2091003;28;20490;-68
2022/02/09 11:01:03;;;;;;;4.57;4.10;;;9.20;99.90;;;;;;2099124;28;20032;-68
2022/02/09 11:02:13;;;;;;;4.35;3.92;;;9.20;99.90;;;;;;2107420;28;20480;-68
2022/02/09 11:03:21;;;;;;;5.13;4.50;;;9.20;99.90;;;;;;2108536;28;20074;-70
2022/02/09 11:04:22;;;;;;;5.30;4.30;;;9.20;99.90;;;;;;2100723;28;20092;-70
2022/02/09 11:05:31;;;;;;;5.28;4.10;;;9.20;99.90;;;;;;2091522;28;20408;-69
2022/02/09 11:06:37;;;;;;;5.43;4.10;;;9.20;99.90;;;;;;2108215;28;20038;-70
2022/02/09 11:07:43;;;;;;;5.20;3.88;;;9.20;99.90;;;;;;2107317;28;20024;-69
2022/02/09 11:08:44;;;;;;;5.97;3.95;;;9.20;99.90;;;;;;2107108;28;20028;-70
2022/02/09 11:09:44;;;;;;;4.45;3.78;;;9.20;99.90;;;;;;2106861;28;20076;-71
2022/02/09 11:10:50;;;;;;;4.18;3.78;;;9.20;99.90;;;;;;2107060;28;20479;-72
2022/02/09 11:11:52;;;;;;;5.72;3.95;;;9.20;99.90;;;;;;2098231;28;20040;-70
2022/02/09 11:12:53;;;;;;;4.40;3.75;;;9.20;99.90;;;;;;2098573;28;20042;-71
2022/02/09 11:13:54;;;;;;;5.10;3.97;;;9.20;99.90;;;;;;2108156;28;20488;-70